createdAt,value
2022-09-26T00:00:46.202Z,100256.13
2022-09-26T00:03:15.154Z,100251.91
2022-09-26T00:05:42.741Z,100241.03
2022-09-26T00:08:10.318Z,100241.03
2022-09-26T00:10:37.932Z,100233.72
2022-09-26T00:13:05.598Z,100237.06
2022-09-26T00:15:33.209Z,100226.81
2022-09-26T00:18:00.788Z,100230.00
2022-09-26T00:20:29.797Z,100225.31
2022-09-26T00:22:57.440Z,100221.53
2022-09-26T00:25:26.920Z,100204.81
2022-09-26T00:27:54.563Z,100207.94
2022-09-26T00:30:22.216Z,100201.47
2022-09-26T00:32:49.810Z,100200.50
2022-09-26T00:35:17.507Z,100198.13
2022-09-26T00:37:46.398Z,100193.97
2022-09-26T00:40:14.079Z,100188.19
2022-09-26T00:42:41.742Z,100179.00
2022-09-26T00:45:10.433Z,100172.13
2022-09-26T00:47:43.289Z,100176.06
2022-09-26T00:50:17.915Z,100179.00
2022-09-26T00:52:51.924Z,100170.06
2022-09-26T00:55:24.278Z,100170.88
2022-09-26T00:57:57.341Z,100172.97
2022-09-26T01:00:25.015Z,100167.34
2022-09-26T01:02:54.076Z,100161.72
2022-09-26T01:05:23.873Z,100158.00
2022-09-26T01:07:53.995Z,100154.84
2022-09-26T01:10:23.140Z,100155.69
2022-09-26T01:12:51.166Z,100147.94
2022-09-26T01:15:19.680Z,100153.34
2022-09-26T01:17:47.691Z,100154.78
2022-09-26T01:20:27.800Z,100151.88
2022-09-26T01:23:45.434Z,100140.63
2022-09-26T01:26:57.471Z,100138.25
2022-09-26T01:29:52.709Z,100133.41
2022-09-26T01:32:47.827Z,100129.66
2022-09-26T01:35:27.921Z,100129.03
2022-09-26T01:38:05.749Z,100127.41
2022-09-26T01:40:41.432Z,100131.97
2022-09-26T01:43:16.785Z,100117.88
2022-09-26T01:45:52.692Z,100125.34
2022-09-26T01:48:26.191Z,100116.59
2022-09-26T01:50:58.680Z,100112.00
2022-09-26T01:53:30.751Z,100112.59
2022-09-26T01:56:03.900Z,100107.22
2022-09-26T01:58:36.944Z,100101.97
2022-09-26T02:01:11.386Z,100110.09
2022-09-26T02:03:44.159Z,100103.41
2022-09-26T02:06:17.605Z,100105.53
2022-09-26T02:08:50.464Z,100094.84
2022-09-26T02:11:19.359Z,100092.31
2022-09-26T02:13:52.142Z,100082.31
2022-09-26T02:16:26.756Z,100087.28
2022-09-26T02:18:58.050Z,100068.91
2022-09-26T02:21:25.880Z,100071.41
2022-09-26T02:23:54.893Z,100063.56
2022-09-26T02:26:23.531Z,100061.88
2022-09-26T02:28:51.396Z,100061.00
2022-09-26T02:31:22.857Z,100058.31
2022-09-26T02:33:53.019Z,100051.69
2022-09-26T02:36:21.636Z,100060.78
2022-09-26T02:38:49.290Z,100052.06
2022-09-26T02:41:29.053Z,100042.44
2022-09-26T02:44:24.075Z,100043.66
2022-09-26T02:47:09.533Z,100024.94
2022-09-26T02:49:51.120Z,100021.78
2022-09-26T02:52:35.062Z,100029.91
2022-09-26T02:55:13.227Z,100024.31
2022-09-26T02:57:49.851Z,100007.81
2022-09-26T03:00:21.496Z,100010.06
2022-09-26T03:02:53.388Z,100010.06
2022-09-26T03:05:25.064Z,100006.72
2022-09-26T03:07:57.747Z,100003.41
2022-09-26T03:10:28.314Z,100002.81
2022-09-26T03:13:01.362Z,99996.50
2022-09-26T03:15:30.591Z,99988.97
2022-09-26T03:18:00.118Z,99984.16
2022-09-26T03:20:29.104Z,99980.63
2022-09-26T03:22:57.134Z,99984.38
2022-09-26T03:25:28.046Z,99979.75
2022-09-26T03:27:55.910Z,99970.19
2022-09-26T03:30:24.281Z,99970.41
2022-09-26T03:32:51.927Z,99966.09
2022-09-26T03:35:20.751Z,99975.38
2022-09-26T03:37:50.166Z,99962.09
2022-09-26T03:40:17.952Z,99959.03
2022-09-26T03:42:46.735Z,99960.47
2022-09-26T03:45:14.274Z,99952.41
2022-09-26T03:47:42.182Z,99945.41
2022-09-26T03:50:10.516Z,99952.06
2022-09-26T03:52:38.240Z,99940.41
2022-09-26T03:55:07.955Z,99942.72
2022-09-26T03:57:35.865Z,99944.41
2022-09-26T04:00:07.504Z,99928.59
2022-09-26T04:02:35.605Z,99924.56
2022-09-26T04:05:03.215Z,99924.72
2022-09-26T04:07:30.812Z,99918.69
2022-09-26T04:09:58.350Z,99921.22
2022-09-26T04:12:27.777Z,99911.00
2022-09-26T04:14:55.356Z,99914.75
2022-09-26T04:17:23.215Z,99912.13
2022-09-26T04:19:50.786Z,99903.03
2022-09-26T04:22:18.442Z,99897.22
2022-09-26T04:24:45.954Z,99905.97
2022-09-26T04:27:13.539Z,99894.13
2022-09-26T04:29:43.978Z,99890.81
2022-09-26T04:32:12.266Z,99887.44
2022-09-26T04:34:40.595Z,99889.25
2022-09-26T04:37:08.975Z,99885.66
2022-09-26T04:39:37.001Z,99881.69
2022-09-26T04:42:04.796Z,99880.00
2022-09-26T04:44:32.655Z,99869.16
2022-09-26T04:47:01.563Z,99870.59
2022-09-26T04:49:29.731Z,99874.53
2022-09-26T04:51:57.414Z,99869.41
2022-09-26T04:54:26.243Z,99865.56
2022-09-26T04:56:53.943Z,99869.53
2022-09-26T04:59:21.552Z,99862.69
2022-09-26T05:01:49.172Z,99860.78
2022-09-26T05:04:18.089Z,99854.38
2022-09-26T05:06:45.733Z,99856.88
2022-09-26T05:09:13.341Z,99844.59
2022-09-26T05:11:40.903Z,99836.84
2022-09-26T05:14:08.806Z,99830.59
2022-09-26T05:16:39.814Z,99837.81
2022-09-26T05:19:08.688Z,99826.50
2022-09-26T05:21:37.615Z,99823.81
2022-09-26T05:24:23.031Z,99826.59
2022-09-26T05:26:52.599Z,99821.56
2022-09-26T05:29:21.751Z,99821.47
2022-09-26T05:31:50.231Z,99817.34
2022-09-26T05:34:20.183Z,99825.75
2022-09-26T05:36:51.742Z,99816.59
2022-09-26T05:39:42.143Z,99820.34
2022-09-26T05:42:10.515Z,99816.72
2022-09-26T05:44:39.696Z,99812.38
2022-09-26T05:47:08.447Z,99808.25
2022-09-26T05:49:36.514Z,99810.88
2022-09-26T05:52:05.404Z,99810.03
2022-09-26T05:54:33.013Z,99800.84
2022-09-26T05:57:00.778Z,99808.16
2022-09-26T05:59:28.581Z,99814.50
2022-09-26T06:01:58.176Z,99815.84
2022-09-26T06:04:25.933Z,99802.06
2022-09-26T06:06:53.604Z,99799.16
2022-09-26T06:09:23.052Z,99799.97
2022-09-26T06:11:50.610Z,99793.94
2022-09-26T06:14:18.176Z,99790.09
2022-09-26T06:16:45.788Z,99791.44
2022-09-26T06:19:13.418Z,99785.78
2022-09-26T06:21:43.960Z,99790.38
2022-09-26T06:24:12.032Z,99785.19
2022-09-26T06:26:41.016Z,99780.50
2022-09-26T06:29:11.352Z,99772.75
2022-09-26T06:31:39.153Z,99775.38
2022-09-26T06:34:07.794Z,99772.56
2022-09-26T06:36:35.759Z,99766.56
2022-09-26T06:39:03.593Z,99767.00
2022-09-26T06:41:31.236Z,99764.91
2022-09-26T06:44:02.948Z,99765.16
2022-09-26T06:46:31.240Z,99759.25
2022-09-26T06:48:58.919Z,99755.28
2022-09-26T06:51:26.493Z,99752.41
2022-09-26T06:53:56.166Z,99746.53
2022-09-26T06:56:23.740Z,99741.72
2022-09-26T06:58:51.359Z,99748.34
2022-09-26T07:01:20.442Z,99739.75
2022-09-26T07:03:48.157Z,99745.53
2022-09-26T07:06:16.809Z,99739.44
2022-09-26T07:09:01.605Z,99740.72
2022-09-26T07:11:41.988Z,99738.78
2022-09-26T07:14:18.578Z,99739.81
2022-09-26T07:16:49.272Z,99741.53
2022-09-26T07:19:17.194Z,99736.38
2022-09-26T07:21:45.115Z,99734.97
2022-09-26T07:24:14.086Z,99726.19
2022-09-26T07:26:41.828Z,99730.47
2022-09-26T07:29:09.506Z,99718.28
2022-09-26T07:31:37.886Z,99713.56
2022-09-26T07:34:08.395Z,99718.97
2022-09-26T07:36:36.157Z,99715.91
2022-09-26T07:39:03.921Z,99707.31
2022-09-26T07:41:31.469Z,99704.84
2022-09-26T07:47:04.548Z,99707.69
2022-09-26T07:49:50.911Z,99697.25
2022-09-26T07:52:22.419Z,99694.44
2022-09-26T07:54:50.047Z,99694.44
2022-09-26T07:57:19.516Z,99699.97
2022-09-26T07:59:49.596Z,99696.91
2022-09-26T08:02:22.155Z,99697.03
2022-09-26T08:04:58.816Z,99696.31
2022-09-26T08:07:28.486Z,99691.97
2022-09-26T08:09:56.290Z,99692.06
2022-09-26T08:12:25.286Z,99686.19
2022-09-26T08:14:53.079Z,99695.13
2022-09-26T08:17:21.553Z,99692.06
2022-09-26T08:19:50.577Z,99693.38
2022-09-26T08:22:20.555Z,99694.53
2022-09-26T08:24:49.637Z,99677.25
2022-09-26T08:27:17.902Z,99692.34
2022-09-26T08:29:48.852Z,99681.97
2022-09-26T08:32:17.331Z,99672.97
2022-09-26T08:34:45.622Z,99680.31
2022-09-26T08:37:14.615Z,99676.06
2022-09-26T08:39:42.167Z,99678.16
2022-09-26T08:42:23.884Z,99675.44
2022-09-26T08:45:26.909Z,99667.31
2022-09-26T08:48:03.890Z,99666.25
2022-09-26T08:50:40.684Z,99665.31
2022-09-26T08:53:13.984Z,99657.03
2022-09-26T08:55:43.495Z,99655.63
2022-09-26T08:58:18.224Z,99654.09
2022-09-26T09:00:48.622Z,99653.94
2022-09-26T09:03:25.712Z,99654.78
2022-09-26T09:05:59.441Z,99643.56
2022-09-26T09:08:35.816Z,99637.88
2022-09-26T09:11:11.362Z,99647.22
2022-09-26T09:13:49.778Z,99641.53
2022-09-26T09:16:31.745Z,99628.78
2022-09-26T09:19:12.085Z,99636.72
2022-09-26T09:21:47.641Z,99632.66
2022-09-26T09:24:29.508Z,99627.31
2022-09-26T09:30:17.598Z,99626.41
2022-09-26T09:32:51.771Z,99615.13
2022-09-26T09:35:26.175Z,99620.16
2022-09-26T09:37:54.836Z,99621.91
2022-09-26T09:40:30.078Z,99625.19
2022-09-26T09:43:03.104Z,99624.47
2022-09-26T09:45:38.168Z,99617.72
2022-09-26T09:48:10.670Z,99610.53
2022-09-26T09:50:46.721Z,99610.78
2022-09-26T09:53:29.648Z,99599.75
2022-09-26T09:56:10.461Z,99606.41
2022-09-26T09:58:56.243Z,99596.94
2022-09-26T10:01:28.011Z,99586.69
2022-09-26T10:04:03.311Z,99586.88
2022-09-26T10:06:45.265Z,99576.81
2022-09-26T10:09:35.380Z,99578.00
2022-09-26T10:12:14.442Z,99566.19
2022-09-26T10:14:46.864Z,99570.56
2022-09-26T10:17:18.719Z,99565.69
2022-09-26T10:19:46.300Z,99560.47
2022-09-26T10:22:25.816Z,99560.56
2022-09-26T10:25:00.694Z,99561.06
2022-09-26T10:27:36.774Z,99561.88
2022-09-26T10:30:09.911Z,99559.16
2022-09-26T10:32:46.705Z,99555.03
2022-09-26T10:35:20.717Z,99549.13
2022-09-26T10:37:51.635Z,99550.19
2022-09-26T10:40:44.227Z,99556.06
2022-09-26T10:43:29.590Z,99547.63
2022-09-26T10:46:10.067Z,99557.03
2022-09-26T10:48:48.470Z,99561.47
2022-09-26T10:51:21.880Z,99558.50
2022-09-26T10:53:53.019Z,99559.34
2022-09-26T10:56:26.118Z,99554.47
2022-09-26T10:58:59.450Z,99559.09
2022-09-26T11:01:31.103Z,99557.19
2022-09-26T11:04:10.824Z,99553.16
2022-09-26T11:06:43.816Z,99553.75
2022-09-26T11:09:13.919Z,99538.88
2022-09-26T11:11:42.087Z,99539.47
2022-09-26T11:14:11.133Z,99532.38
2022-09-26T11:16:51.190Z,99528.81
2022-09-26T11:19:32.335Z,99524.19
2022-09-26T11:22:08.240Z,99514.94
2022-09-26T11:24:46.147Z,99514.38
2022-09-26T11:27:23.576Z,99509.00
2022-09-26T11:29:59.847Z,99506.28
2022-09-26T11:32:30.372Z,99500.94
2022-09-26T11:35:02.920Z,99498.72
2022-09-26T11:37:50.628Z,99499.09
2022-09-26T11:40:27.494Z,99504.06
2022-09-26T11:43:09.772Z,99487.09
2022-09-26T11:45:56.428Z,99488.69
2022-09-26T11:48:49.314Z,99486.88
2022-09-26T11:51:23.928Z,99480.94
2022-09-26T11:54:19.305Z,99474.81
2022-09-26T11:57:01.850Z,99479.47
2022-09-26T11:59:43.475Z,99481.38
2022-09-26T12:02:33.514Z,99479.88
2022-09-26T12:05:27.078Z,99473.88
2022-09-26T12:08:11.501Z,99470.16
2022-09-26T12:10:47.660Z,99474.19
2022-09-26T12:13:34.134Z,99466.13
2022-09-26T12:16:12.202Z,99466.38
2022-09-26T12:18:53.391Z,99471.56
2022-09-26T12:21:28.182Z,99465.22
2022-09-26T12:23:59.996Z,99458.47
2022-09-26T12:26:34.597Z,99462.25
2022-09-26T12:29:16.978Z,99447.94
2022-09-26T12:31:59.631Z,99444.78
2022-09-26T12:34:42.686Z,99443.72
2022-09-26T12:37:25.950Z,99438.69
2022-09-26T12:40:10.328Z,99439.69
2022-09-26T12:42:55.020Z,99430.94
2022-09-26T12:45:43.040Z,99422.78
2022-09-26T12:48:24.512Z,99421.31
2022-09-26T12:51:08.120Z,99414.72
2022-09-26T12:53:53.666Z,99418.13
2022-09-26T12:56:26.675Z,99411.19
2022-09-26T12:59:10.325Z,99411.81
2022-09-26T13:01:54.976Z,99398.81
2022-09-26T13:04:52.944Z,99394.13
2022-09-26T13:07:38.550Z,99392.47
2022-09-26T13:10:33.298Z,99391.56
2022-09-26T13:13:22.264Z,99383.41
2022-09-26T13:16:01.174Z,99378.94
2022-09-26T13:18:35.273Z,99378.56
2022-09-26T13:21:09.993Z,99379.78
2022-09-26T13:23:43.480Z,99377.06
2022-09-26T13:26:15.686Z,99366.66
2022-09-26T13:29:13.005Z,99367.50
2022-09-26T13:31:41.389Z,99359.22
2022-09-26T13:34:17.772Z,99361.19
2022-09-26T13:36:46.474Z,99354.47
2022-09-26T13:39:26.802Z,99360.66
2022-09-26T13:42:02.831Z,99361.41
2022-09-26T13:44:48.006Z,99359.13
2022-09-26T13:47:26.951Z,99359.44
2022-09-26T13:50:03.246Z,99353.34
2022-09-26T13:52:46.918Z,99346.09
2022-09-26T13:55:19.284Z,99347.16
2022-09-26T13:58:03.803Z,99345.19
2022-09-26T14:00:56.877Z,99343.16
2022-09-26T14:04:11.482Z,99340.53
2022-09-26T14:06:39.066Z,99337.69
2022-09-26T14:09:24.294Z,99335.47
2022-09-26T14:12:33.049Z,99328.25
2022-09-26T14:15:22.555Z,99322.63
2022-09-26T14:18:22.720Z,99314.72
2022-09-26T14:21:04.858Z,99308.06
2022-09-26T14:23:38.826Z,99311.13
2022-09-26T14:26:20.920Z,99306.53
2022-09-26T14:28:54.894Z,99300.53
2022-09-26T14:31:43.965Z,99298.59
2022-09-26T14:34:20.790Z,99293.34
2022-09-26T14:36:49.339Z,99289.69
2022-09-26T14:39:28.274Z,99281.84
2022-09-26T14:41:58.704Z,99278.38
2022-09-26T14:44:36.382Z,99274.53
2022-09-26T14:47:09.001Z,99281.94
2022-09-26T14:49:36.808Z,99275.56
2022-09-26T14:52:10.438Z,99271.16
2022-09-26T14:54:41.079Z,99274.94
2022-09-26T14:57:21.441Z,99271.06
2022-09-26T14:59:50.721Z,99269.16
2022-09-26T15:02:26.016Z,99263.81
2022-09-26T15:05:06.900Z,99256.38
2022-09-26T15:07:37.612Z,99249.44
2022-09-26T15:10:18.786Z,99253.47
2022-09-26T15:12:51.029Z,99237.31
2022-09-26T15:15:33.400Z,99230.72
2022-09-26T15:18:08.234Z,99221.09
2022-09-26T15:20:40.351Z,99216.28
2022-09-26T15:23:19.164Z,99215.22
2022-09-26T15:25:47.138Z,99214.72
2022-09-26T15:28:14.735Z,99212.75
2022-09-26T15:30:44.874Z,99212.78
2022-09-26T15:33:17.357Z,99213.72
2022-09-26T15:35:54.470Z,99208.53
2022-09-26T15:38:24.621Z,99207.06
2022-09-26T15:41:02.476Z,99198.91
2022-09-26T15:43:36.089Z,99202.97
2022-09-26T15:46:21.246Z,99194.00
2022-09-26T15:48:48.848Z,99195.69
2022-09-26T15:51:21.151Z,99187.25
2022-09-26T15:53:53.600Z,99177.22
2022-09-26T15:56:25.114Z,99174.44
2022-09-26T15:58:58.514Z,99173.81
2022-09-26T16:01:30.114Z,99170.84
2022-09-26T16:03:59.988Z,99167.78
2022-09-26T16:06:30.770Z,99175.47
2022-09-26T16:09:04.696Z,99173.88
2022-09-26T16:11:34.127Z,99164.41
2022-09-26T16:14:01.964Z,99171.03
2022-09-26T16:16:33.191Z,99163.69
2022-09-26T16:19:05.346Z,99168.25
2022-09-26T16:21:36.456Z,99164.00
2022-09-26T16:24:28.421Z,99163.56
2022-09-26T16:26:56.605Z,99161.41
2022-09-26T16:29:32.753Z,99153.84
2022-09-26T16:32:02.361Z,99157.94
2022-09-26T16:34:30.820Z,99146.19
2022-09-26T16:36:59.167Z,99149.22
2022-09-26T16:39:29.018Z,99140.25
2022-09-26T16:42:02.461Z,99145.63
2022-09-26T16:44:35.916Z,99143.31
2022-09-26T16:47:08.838Z,99144.97
2022-09-26T16:49:46.575Z,99138.63
2022-09-26T16:52:28.438Z,99144.19
2022-09-26T16:54:57.315Z,99138.75
2022-09-26T16:57:27.837Z,99139.03
2022-09-26T17:00:21.455Z,99136.13
2022-09-26T17:02:49.779Z,99143.66
2022-09-26T17:05:19.689Z,99128.34
2022-09-26T17:07:48.775Z,99122.66
2022-09-26T17:10:18.267Z,99123.88
2022-09-26T17:12:51.321Z,99111.44
2022-09-26T17:15:30.769Z,99107.88
2022-09-26T17:18:01.080Z,99107.94
2022-09-26T17:20:29.658Z,99109.38
2022-09-26T17:22:57.324Z,99100.75
2022-09-26T17:25:26.035Z,99103.16
2022-09-26T17:27:59.570Z,99108.38
2022-09-26T17:30:27.403Z,99102.97
2022-09-26T17:32:55.492Z,99096.72
2022-09-26T17:35:28.125Z,99104.59
2022-09-26T17:37:56.535Z,99102.53
2022-09-26T17:40:26.988Z,99098.84
2022-09-26T17:42:56.906Z,99088.34
2022-09-26T17:45:29.163Z,99086.28
2022-09-26T17:47:59.116Z,99083.34
2022-09-26T17:50:31.049Z,99084.63
2022-09-26T17:53:00.679Z,99080.09
2022-09-26T17:55:28.707Z,99079.00
2022-09-26T17:57:56.845Z,99066.91
2022-09-26T18:00:25.509Z,99072.19
2022-09-26T18:02:57.690Z,99066.25
2022-09-26T18:05:30.637Z,99067.81
2022-09-26T18:08:01.578Z,99063.88
2022-09-26T18:10:31.617Z,99063.84
2022-09-26T18:13:01.877Z,99064.41
2022-09-26T18:15:30.845Z,99058.75
2022-09-26T18:18:00.222Z,99053.25
2022-09-26T18:20:37.706Z,99055.72
2022-09-26T18:23:06.917Z,99049.41
2022-09-26T18:25:37.152Z,99041.56
2022-09-26T18:28:08.055Z,99041.75
2022-09-26T18:30:35.905Z,99040.16
2022-09-26T18:33:07.057Z,99048.88
2022-09-26T18:35:36.277Z,99033.53
2022-09-26T18:38:04.263Z,99042.72
2022-09-26T18:40:44.057Z,99047.63
2022-09-26T18:43:17.833Z,99045.44
2022-09-26T18:45:45.528Z,99044.25
2022-09-26T18:48:22.389Z,99033.78
2022-09-26T18:50:52.375Z,99038.91
2022-09-26T18:53:23.087Z,99042.19
2022-09-26T18:56:08.341Z,99046.09
2022-09-26T18:58:36.477Z,99036.44
2022-09-26T19:01:06.939Z,99037.09
2022-09-26T19:03:36.893Z,99040.34
2022-09-26T19:06:11.657Z,99042.50
2022-09-26T19:08:40.660Z,99031.59
2022-09-26T19:11:13.696Z,99025.81
2022-09-26T19:13:41.313Z,99024.31
2022-09-26T19:16:09.607Z,99031.50
2022-09-26T19:18:38.589Z,99022.56
2022-09-26T19:21:16.448Z,99019.34
2022-09-26T19:23:45.474Z,99027.28
2022-09-26T19:26:20.480Z,99016.38
2022-09-26T19:28:48.216Z,99021.78
2022-09-26T19:31:16.238Z,99016.22
2022-09-26T19:33:46.528Z,99011.56
2022-09-26T19:36:18.514Z,99006.22
2022-09-26T19:38:46.565Z,99002.03
2022-09-26T19:41:14.627Z,99010.97
2022-09-26T19:43:42.835Z,99001.97
2022-09-26T19:46:15.425Z,98993.38
2022-09-26T19:48:43.668Z,99003.44
2022-09-26T19:51:13.820Z,98993.81
2022-09-26T19:53:44.091Z,98991.47
2022-09-26T19:56:11.772Z,98988.19
2022-09-26T19:58:41.017Z,98982.91
2022-09-26T20:01:16.496Z,98978.91
2022-09-26T20:03:44.954Z,98983.91
2022-09-26T20:06:15.851Z,98969.25
2022-09-26T20:08:45.094Z,98973.69
2022-09-26T20:11:13.480Z,98965.22
2022-09-26T20:13:59.127Z,98960.94
2022-09-26T20:16:27.544Z,98953.38
2022-09-26T20:18:56.797Z,98949.34
2022-09-26T20:21:28.385Z,98943.91
2022-09-26T20:24:00.262Z,98947.63
2022-09-26T20:26:29.382Z,98943.66
2022-09-26T20:28:57.452Z,98942.84
2022-09-26T20:31:27.420Z,98937.41
2022-09-26T20:33:56.903Z,98940.63
2022-09-26T20:36:27.720Z,98932.19
2022-09-26T20:39:00.435Z,98929.69
2022-09-26T20:41:32.678Z,98919.75
2022-09-26T20:44:06.011Z,98923.00
2022-09-26T20:46:38.815Z,98917.84
2022-09-26T20:49:09.821Z,98911.28
2022-09-26T20:51:38.346Z,98910.78
2022-09-26T20:54:20.093Z,98908.00
2022-09-26T20:56:48.839Z,98903.84
2022-09-26T20:59:16.538Z,98897.66
2022-09-26T21:01:44.303Z,98900.38
2022-09-26T21:04:16.848Z,98892.81
2022-09-26T21:06:45.910Z,98893.09
2022-09-26T21:09:20.821Z,98887.47
2022-09-26T21:11:49.201Z,98881.63
2022-09-26T21:14:17.252Z,98883.63
2022-09-26T21:16:48.648Z,98887.41
2022-09-26T21:19:23.762Z,98877.94
2022-09-26T21:21:52.499Z,98877.38
2022-09-26T21:24:30.384Z,98875.72
2022-09-26T21:26:58.017Z,98872.69
2022-09-26T21:29:25.671Z,98871.91
2022-09-26T21:31:56.157Z,98878.28
2022-09-26T21:34:28.241Z,98863.91
2022-09-26T21:36:59.374Z,98868.44
2022-09-26T21:39:28.780Z,98861.94
2022-09-26T21:41:59.512Z,98859.22
2022-09-26T21:44:31.962Z,98854.56
2022-09-26T21:46:59.650Z,98853.19
2022-09-26T21:49:27.261Z,98850.22
2022-09-26T21:51:58.918Z,98853.13
2022-09-26T21:54:33.809Z,98851.22
2022-09-26T21:57:06.066Z,98842.28
2022-09-26T21:59:33.912Z,98846.88
2022-09-26T22:02:01.599Z,98842.41
2022-09-26T22:04:29.264Z,98842.72
2022-09-26T22:06:57.201Z,98836.72
2022-09-26T22:09:25.201Z,98831.22
2022-09-26T22:11:54.824Z,98827.00
2022-09-26T22:14:22.594Z,98824.13
2022-09-26T22:16:50.841Z,98821.41
2022-09-26T22:19:18.493Z,98819.25
2022-09-26T22:21:46.927Z,98816.47
2022-09-26T22:24:14.587Z,98818.81
2022-09-26T22:26:42.253Z,98810.72
2022-09-26T22:29:11.487Z,98807.63
2022-09-26T22:31:39.142Z,98810.72
2022-09-26T22:34:06.846Z,98805.53
2022-09-26T22:36:34.506Z,98796.94
2022-09-26T22:39:02.510Z,98792.06
2022-09-26T22:41:30.159Z,98795.28
2022-09-26T22:43:57.904Z,98786.31
2022-09-26T22:46:27.013Z,98777.03
2022-09-26T22:48:54.681Z,98781.66
2022-09-26T22:51:22.278Z,98778.13
2022-09-26T22:53:49.780Z,98779.75
2022-09-26T22:56:18.005Z,98777.34
2022-09-26T22:58:49.067Z,98773.56
2022-09-26T23:01:19.008Z,98769.84
2022-09-26T23:03:47.956Z,98765.53
2022-09-26T23:06:15.939Z,98768.78
2022-09-26T23:08:43.494Z,98763.38
2022-09-26T23:11:13.131Z,98759.59
2022-09-26T23:13:41.008Z,98752.84
2022-09-26T23:16:10.166Z,98752.16
2022-09-26T23:18:39.482Z,98748.78
2022-09-26T23:21:10.594Z,98747.19
2022-09-26T23:23:38.299Z,98738.78
2022-09-26T23:26:06.898Z,98741.44
2022-09-26T23:28:35.303Z,98727.94
2022-09-26T23:31:10.090Z,98722.78
2022-09-26T23:33:38.299Z,98724.13
2022-09-26T23:36:07.694Z,98715.25
2022-09-26T23:38:38.423Z,98719.28
2022-09-26T23:41:06.635Z,98722.00
2022-09-26T23:43:34.222Z,98718.47
2022-09-26T23:46:01.834Z,98715.00
2022-09-26T23:48:29.579Z,98716.41
2022-09-26T23:50:57.592Z,98711.56
2022-09-26T23:53:25.682Z,98708.75
2022-09-26T23:56:05.479Z,98707.94
2022-09-26T23:58:33.843Z,98700.63
